Time;durP1;ratioP1;P1;durP2;ratioP2;P2;SDS_P1;SDS_P2;PMS_P1;PMS_P2;Temp;Humidity;BMP_temperature;BMP_pressure;BME280_temperature;BME280_humidity;BME280_pressure;Samples;Min_cycle;Max_cycle;Signal;HPM_P1;HPM_P2
2023/10/29 00:01:00;;;;;;;3.00;1.60;;;;;;;9.52;85.58;95951.02;108470;1271;22518;-79
2023/10/29 00:03:51;;;;;;;4.20;1.60;;;;;;;9.55;85.75;95942.69;108278;1271;22525;-79
2023/10/29 00:06:22;;;;;;;3.50;1.30;;;;;;;9.60;85.80;95940.63;108324;1277;27702;-79
2023/10/29 00:08:53;;;;;;;1.90;1.00;;;;;;;9.63;85.70;95937.97;108288;1277;22636;-79
2023/10/29 00:11:24;;;;;;;2.90;1.30;;;;;;;9.69;85.71;95939.45;108348;1277;22753;-78
2023/10/29 00:13:56;;;;;;;3.10;1.40;;;;;;;9.78;85.65;95936.42;108277;1277;22537;-79
2023/10/29 00:16:29;;;;;;;3.70;1.30;;;;;;;9.81;85.32;95942.49;108332;1271;22532;-79
2023/10/29 00:19:02;;;;;;;1.50;1.20;;;;;;;9.86;85.31;95943.13;108321;1277;22547;-78
2023/10/29 00:21:35;;;;;;;2.80;1.00;;;;;;;9.92;85.16;95936.13;108317;1277;24239;-79
2023/10/29 00:24:10;;;;;;;2.90;1.40;;;;;;;9.93;84.95;95939.19;108324;1277;25406;-79
2023/10/29 00:26:41;;;;;;;2.70;1.50;;;;;;;9.95;84.91;95938.56;108308;1277;22532;-78
2023/10/29 00:29:12;;;;;;;2.20;1.10;;;;;;;9.96;84.70;95931.19;108337;1278;22543;-78
2023/10/29 00:31:43;;;;;;;2.20;1.20;;;;;;;9.98;84.61;95929.67;108327;1278;22596;-79
2023/10/29 00:34:14;;;;;;;2.10;0.90;;;;;;;10.00;84.54;95935.65;108326;1274;23846;-79
2023/10/29 00:36:45;;;;;;;1.60;1.00;;;;;;;10.00;84.51;95930.98;108306;1278;23891;-79
2023/10/29 00:39:19;;;;;;;3.50;1.40;;;;;;;10.00;84.46;95925.63;108295;1278;25394;-78
2023/10/29 00:41:52;;;;;;;1.60;1.20;;;;;;;10.01;84.36;95935.20;108334;1271;22566;-79
2023/10/29 00:44:23;;;;;;;3.20;1.50;;;;;;;10.02;84.30;95932.32;108262;1278;24908;-79
2023/10/29 00:46:54;;;;;;;2.70;1.50;;;;;;;10.01;84.28;95929.52;108341;1278;24037;-79
2023/10/29 00:49:25;;;;;;;3.30;1.20;;;;;;;10.00;84.27;95932.41;108326;1269;22677;-78
2023/10/29 00:51:57;;;;;;;2.70;1.50;;;;;;;9.98;84.28;95929.04;108302;1278;22520;-78
2023/10/29 00:54:28;;;;;;;3.00;1.10;;;;;;;9.98;84.23;95935.59;108320;1271;22513;-79
2023/10/29 00:56:59;;;;;;;2.90;1.30;;;;;;;10.00;84.16;95936.21;108270;1271;22669;-79
2023/10/29 00:59:33;;;;;;;1.60;1.00;;;;;;;10.05;84.11;95936.71;108330;1270;22524;-79
2023/10/29 01:02:07;;;;;;;2.60;1.10;;;;;;;10.07;83.89;95941.49;108318;1278;23941;-79
2023/10/29 01:04:39;;;;;;;2.90;1.30;;;;;;;10.08;83.82;95943.32;108322;1277;22716;-79
2023/10/29 01:07:10;;;;;;;3.10;0.80;;;;;;;10.08;83.65;95943.75;108297;1278;22513;-78
2023/10/29 01:09:42;;;;;;;1.90;1.00;;;;;;;10.07;83.66;95945.89;108294;1277;22572;-78
2023/10/29 01:12:18;;;;;;;2.40;0.80;;;;;;;10.04;83.57;95940.38;108373;1278;23808;-79
2023/10/29 01:14:51;;;;;;;3.10;1.10;;;;;;;10.07;83.59;95940.22;108342;1278;22521;-79
2023/10/29 01:17:24;;;;;;;2.60;1.00;;;;;;;10.07;83.46;95940.60;108296;1277;25489;-79
2023/10/29 01:19:55;;;;;;;2.90;1.10;;;;;;;10.11;83.39;95937.81;108335;1278;25250;-79
2023/10/29 01:22:26;;;;;;;2.10;1.30;;;;;;;10.16;83.22;95937.86;108337;1274;25521;-79
2023/10/29 01:24:58;;;;;;;1.80;1.00;;;;;;;10.18;83.08;95925.59;108342;1278;22643;-79
2023/10/29 01:27:29;;;;;;;2.90;1.10;;;;;;;10.18;83.03;95924.80;108369;1278;22536;-79
2023/10/29 01:30:00;;;;;;;2.10;0.90;;;;;;;10.17;83.03;95935.41;108307;1278;26501;-78
2023/10/29 01:32:32;;;;;;;2.00;1.00;;;;;;;10.17;83.06;95935.98;108315;1277;22510;-79
2023/10/29 01:35:02;;;;;;;2.10;0.80;;;;;;;10.16;83.00;95937.55;108309;1277;26573;-79
2023/10/29 01:37:34;;;;;;;1.70;0.90;;;;;;;10.16;83.12;95941.41;108313;1278;26426;-78
2023/10/29 01:40:06;;;;;;;2.00;1.40;;;;;;;10.14;83.08;95944.04;108323;1277;22573;-78
2023/10/29 01:42:37;;;;;;;2.90;1.10;;;;;;;10.15;83.10;95944.55;108312;1277;22530;-79
2023/10/29 01:45:10;;;;;;;1.70;1.00;;;;;;;10.19;83.09;95939.02;108312;1278;22577;-79
2023/10/29 01:47:44;;;;;;;1.50;0.90;;;;;;;10.22;82.89;95935.11;108395;1254;22541;-79
2023/10/29 01:50:18;;;;;;;2.30;1.10;;;;;;;10.23;82.89;95938.06;108297;1274;25235;-79
2023/10/29 01:52:53;;;;;;;2.00;0.70;;;;;;;10.26;82.76;95946.45;108295;1279;22524;-79
2023/10/29 01:55:25;;;;;;;2.90;0.90;;;;;;;10.24;82.58;95951.45;108311;1262;22517;-79
2023/10/29 01:57:56;;;;;;;2.20;0.90;;;;;;;10.21;82.62;95950.34;108327;1278;22557;-79
2023/10/29 02:00:27;;;;;;;2.10;0.90;;;;;;;10.16;82.58;95945.96;108266;1278;23308;-79
2023/10/29 02:02:59;;;;;;;1.10;0.60;;;;;;;10.12;82.65;95945.05;108283;1278;22613;-78
2023/10/29 02:05:33;;;;;;;1.70;0.60;;;;;;;10.11;82.66;95943.02;108321;1278;25309;-79
2023/10/29 02:08:04;;;;;;;2.00;0.90;;;;;;;10.09;82.60;95944.80;108287;1278;23216;-78
2023/10/29 02:10:35;;;;;;;2.00;0.80;;;;;;;10.07;82.56;95949.98;108302;1277;22598;-78
2023/10/29 02:13:06;;;;;;;1.80;0.70;;;;;;;10.09;82.59;95948.81;108321;1277;22524;-79
2023/10/29 02:15:37;;;;;;;4.00;1.20;;;;;;;10.14;82.46;95952.14;108339;1274;24114;-78
2023/10/29 02:18:11;;;;;;;3.50;0.90;;;;;;;10.16;82.40;95954.96;108314;1271;22523;-79
2023/10/29 02:20:42;;;;;;;1.10;0.80;;;;;;;10.16;82.34;95952.98;108291;1278;24220;-78
2023/10/29 02:23:14;;;;;;;2.50;1.10;;;;;;;10.15;82.36;95942.55;108307;1278;26152;-79
2023/10/29 02:25:46;;;;;;;1.30;0.80;;;;;;;10.12;82.16;95938.33;108307;1278;23173;-79
2023/10/29 02:28:19;;;;;;;3.50;1.00;;;;;;;10.16;81.97;95936.12;108314;1278;23763;-79
2023/10/29 02:30:52;;;;;;;3.10;0.80;;;;;;;10.17;81.76;95940.27;108296;1278;25511;-79
2023/10/29 02:33:23;;;;;;;4.20;0.90;;;;;;;10.10;81.62;95942.77;108295;1278;22512;-78
2023/10/29 02:35:53;;;;;;;2.20;1.10;;;;;;;10.05;81.57;95942.76;108311;1277;26735;-78
2023/10/29 02:38:25;;;;;;;2.40;0.90;;;;;;;10.01;81.56;95940.23;108304;1270;22565;-78
2023/10/29 02:40:56;;;;;;;1.30;0.90;;;;;;;9.96;81.49;95945.77;108291;1278;25340;-79
2023/10/29 02:43:27;;;;;;;2.40;0.80;;;;;;;9.91;81.52;95942.30;108321;1278;22640;-78
2023/10/29 02:46:01;;;;;;;1.60;0.80;;;;;;;9.87;81.56;95948.89;108305;1278;25198;-78
2023/10/29 02:48:32;;;;;;;1.60;0.90;;;;;;;9.82;81.68;95948.30;108387;1278;22622;-78
2023/10/29 02:51:03;;;;;;;0.90;0.70;;;;;;;9.76;81.70;95949.41;108303;1260;25280;-79
2023/10/29 02:53:35;;;;;;;2.70;0.80;;;;;;;9.70;81.76;95948.65;108287;1278;22517;-79
2023/10/29 02:56:06;;;;;;;2.20;1.20;;;;;;;9.67;81.90;95950.20;108264;1278;24245;-79
2023/10/29 02:58:37;;;;;;;1.20;0.70;;;;;;;9.62;81.99;95958.63;108283;1278;22521;-79
2023/10/29 03:01:09;;;;;;;2.80;0.80;;;;;;;9.59;81.96;95961.49;108325;1278;23208;-79
2023/10/29 03:03:40;;;;;;;1.60;1.00;;;;;;;9.54;82.27;95967.58;108337;1278;23496;-79
2023/10/29 03:06:11;;;;;;;0.90;0.70;;;;;;;9.51;82.29;95972.38;108318;1278;22564;-78
2023/10/29 03:08:42;;;;;;;1.70;1.10;;;;;;;9.49;82.47;95973.11;108288;1278;23286;-77
2023/10/29 03:11:14;;;;;;;1.60;1.00;;;;;;;9.48;82.58;95978.79;108314;1278;22665;-78
2023/10/29 03:13:47;;;;;;;2.50;0.90;;;;;;;9.43;82.57;95978.85;108332;1271;25232;-78
2023/10/29 03:16:19;;;;;;;2.10;0.90;;;;;;;9.38;82.63;95984.15;108329;1278;25030;-78
2023/10/29 03:18:52;;;;;;;2.10;1.00;;;;;;;9.31;82.73;95983.29;108286;1278;33568;-78
2023/10/29 03:21:23;;;;;;;2.90;1.30;;;;;;;9.23;82.71;95986.04;108311;1278;22513;-79
2023/10/29 03:23:53;;;;;;;1.30;0.80;;;;;;;9.14;82.85;95988.86;108332;1264;22516;-78
2023/10/29 03:26:24;;;;;;;2.20;0.80;;;;;;;9.02;82.91;95990.80;108307;1256;22517;-78
2023/10/29 03:28:55;;;;;;;1.90;1.00;;;;;;;8.94;83.25;95988.94;108300;1278;22610;-78
2023/10/29 03:31:26;;;;;;;1.70;0.90;;;;;;;8.87;83.50;95988.39;108290;1278;24372;-78
2023/10/29 03:33:57;;;;;;;1.60;1.00;;;;;;;8.83;83.69;95992.17;108315;1278;22808;-78
2023/10/29 03:36:28;;;;;;;1.40;1.10;;;;;;;8.78;83.77;95993.20;108276;1277;25458;-78
2023/10/29 03:38:59;;;;;;;4.50;1.20;;;;;;;8.73;83.93;95987.76;108330;1274;26245;-78
2023/10/29 03:41:30;;;;;;;2.80;0.90;;;;;;;8.72;84.10;95987.66;108318;1278;22514;-78
2023/10/29 03:44:01;;;;;;;2.80;1.00;;;;;;;8.68;84.19;95989.38;108310;1274;23289;-78
2023/10/29 03:46:31;;;;;;;2.30;1.10;;;;;;;8.68;84.27;95992.67;108276;1277;24252;-79
2023/10/29 03:49:02;;;;;;;4.10;1.10;;;;;;;8.66;84.50;95995.88;108294;1271;22523;-78
2023/10/29 03:51:33;;;;;;;1.70;0.90;;;;;;;8.65;84.55;95999.09;108310;1277;22706;-78
2023/10/29 03:54:04;;;;;;;1.10;0.60;;;;;;;8.69;84.64;95997.04;108305;1278;22529;-78
2023/10/29 03:56:35;;;;;;;2.00;1.00;;;;;;;8.72;84.67;96002.19;108298;1277;22582;-78
2023/10/29 03:59:07;;;;;;;4.40;1.00;;;;;;;8.75;84.66;96004.43;108312;1278;23759;-78
2023/10/29 04:01:37;;;;;;;4.20;1.00;;;;;;;8.78;84.71;96001.91;108306;1262;22574;-78
2023/10/29 04:04:09;;;;;;;2.20;1.30;;;;;;;8.82;84.65;95999.27;108255;1277;22763;-78
2023/10/29 04:06:39;;;;;;;2.50;1.20;;;;;;;8.86;84.63;95994.36;108300;1258;24340;-78
2023/10/29 04:09:11;;;;;;;0.80;0.70;;;;;;;8.86;84.40;95991.20;108324;1277;27207;-78
2023/10/29 04:11:42;;;;;;;2.30;1.00;;;;;;;8.82;84.34;95991.45;108307;1277;22519;-78
2023/10/29 04:14:15;;;;;;;2.00;1.30;;;;;;;8.77;84.36;95989.77;108262;1277;24977;-78
2023/10/29 04:16:47;;;;;;;2.20;0.90;;;;;;;8.73;84.29;95989.23;108301;1278;24210;-78
2023/10/29 04:19:18;;;;;;;2.00;0.90;;;;;;;8.69;84.39;95989.69;108286;1277;22501;-78
2023/10/29 04:21:51;;;;;;;3.10;1.10;;;;;;;8.70;84.49;95995.27;108274;1277;26539;-78
2023/10/29 04:24:22;;;;;;;2.20;1.00;;;;;;;8.68;84.54;95999.21;108311;1274;22601;-78
2023/10/29 04:26:52;;;;;;;3.70;1.10;;;;;;;8.67;84.54;95999.71;108307;1278;22567;-78
2023/10/29 04:29:23;;;;;;;1.70;0.90;;;;;;;8.77;84.74;95998.75;108289;1267;22561;-78
2023/10/29 04:31:54;;;;;;;1.40;0.80;;;;;;;8.96;84.56;95999.11;108286;1277;22575;-78
2023/10/29 04:34:25;;;;;;;2.80;1.00;;;;;;;9.14;84.43;95993.45;108256;1278;25424;-79
2023/10/29 04:36:56;;;;;;;1.60;1.00;;;;;;;9.35;83.93;95987.05;108296;1277;22569;-79
2023/10/29 04:39:27;;;;;;;4.80;1.10;;;;;;;9.50;83.41;95985.58;108263;1278;25350;-78
2023/10/29 04:41:58;;;;;;;1.80;1.00;;;;;;;9.57;82.99;95980.67;108273;1278;23182;-79
2023/10/29 04:44:29;;;;;;;3.10;1.20;;;;;;;9.55;82.56;95976.46;108294;1271;25420;-79
2023/10/29 04:47:03;;;;;;;4.50;1.00;;;;;;;9.47;82.39;95979.86;108295;1272;25430;-79
2023/10/29 04:49:36;;;;;;;2.80;1.10;;;;;;;9.39;82.43;95977.84;108245;1255;22571;-79
2023/10/29 04:52:07;;;;;;;3.70;1.20;;;;;;;9.31;82.36;95967.95;108235;1279;22520;-78
2023/10/29 04:54:38;;;;;;;4.40;1.40;;;;;;;9.26;82.45;95964.95;108274;1278;22991;-78
2023/10/29 04:57:09;;;;;;;3.50;1.20;;;;;;;9.22;82.49;95966.33;108303;1278;22665;-79
2023/10/29 04:59:40;;;;;;;3.00;1.50;;;;;;;9.18;82.56;95956.60;108283;1278;22547;-79
2023/10/29 05:02:11;;;;;;;1.80;1.20;;;;;;;9.12;82.53;95950.64;108264;1272;24196;-79
2023/10/29 05:04:42;;;;;;;2.30;1.20;;;;;;;9.07;82.67;95945.16;108322;1278;22506;-78
2023/10/29 05:07:16;;;;;;;2.00;1.20;;;;;;;9.00;82.62;95945.02;108266;1278;24210;-78
2023/10/29 05:09:47;;;;;;;1.70;1.20;;;;;;;8.97;82.69;95943.60;108277;1278;22594;-79
2023/10/29 05:12:21;;;;;;;1.90;1.20;;;;;;;8.93;82.79;95945.96;108247;1268;25478;-78
2023/10/29 05:14:52;;;;;;;2.00;1.10;;;;;;;8.88;82.85;95947.14;108239;1278;24123;-79
2023/10/29 05:17:23;;;;;;;2.00;1.10;;;;;;;8.84;82.89;95948.18;108274;1278;22519;-79
2023/10/29 05:19:55;;;;;;;2.50;1.20;;;;;;;8.81;82.89;95947.59;108244;1278;22557;-79
2023/10/29 05:22:26;;;;;;;2.40;1.50;;;;;;;8.81;82.98;95946.85;108291;1271;22651;-78
2023/10/29 05:24:57;;;;;;;1.80;1.10;;;;;;;8.81;82.97;95949.75;108250;1278;25378;-78
2023/10/29 05:27:28;;;;;;;2.80;1.10;;;;;;;8.82;83.08;95950.64;108244;1277;22524;-78
2023/10/29 05:30:00;;;;;;;3.80;1.40;;;;;;;8.88;83.15;95959.09;108255;1278;25508;-78
2023/10/29 05:32:32;;;;;;;4.10;1.30;;;;;;;8.93;83.05;95958.77;108276;1277;22583;-78
2023/10/29 05:35:03;;;;;;;2.40;1.20;;;;;;;8.91;82.95;95955.40;108289;1278;23448;-78
2023/10/29 05:37:34;;;;;;;3.60;1.50;;;;;;;8.93;82.98;95955.38;108213;1278;23956;-78
2023/10/29 05:40:07;;;;;;;2.00;1.30;;;;;;;8.90;82.77;95962.09;108246;1278;29526;-78
2023/10/29 05:42:38;;;;;;;2.50;1.10;;;;;;;8.83;82.87;95955.27;108328;1278;23131;-78
2023/10/29 05:45:11;;;;;;;2.70;1.40;;;;;;;8.88;83.09;95956.48;108256;1278;22520;-78
2023/10/29 05:47:45;;;;;;;3.80;1.60;;;;;;;9.13;83.25;95962.27;108288;1274;22534;-78
2023/10/29 05:50:19;;;;;;;3.20;1.40;;;;;;;9.35;82.93;95970.91;108234;1278;25267;-78
2023/10/29 05:52:50;;;;;;;1.50;1.10;;;;;;;9.49;82.59;95968.13;108264;1254;22576;-78
2023/10/29 05:55:22;;;;;;;4.20;1.30;;;;;;;9.62;82.44;95972.01;108273;1275;22524;-78
2023/10/29 05:57:53;;;;;;;2.60;1.30;;;;;;;9.86;82.20;95967.77;108361;1278;24762;-79
2023/10/29 06:15:17;;;;;;;3.50;1.40;;;;;;;10.75;80.60;95988.75;106071;1295;558051;-77
2023/10/29 06:17:49;;;;;;;2.30;1.20;;;;;;;11.32;79.59;95995.65;107728;1283;143346;-76
2023/10/29 06:20:21;;;;;;;3.10;1.40;;;;;;;11.59;79.01;95996.49;107983;1276;24354;-77
2023/10/29 06:22:52;;;;;;;4.00;1.60;;;;;;;11.93;78.41;96000.50;108773;1272;26542;-77
2023/10/29 06:25:23;;;;;;;2.50;1.50;;;;;;;12.06;77.68;96007.99;108830;1272;22518;-77
2023/10/29 06:27:54;;;;;;;3.30;1.10;;;;;;;12.04;77.11;96010.10;108957;1267;22526;-77
2023/10/29 06:30:25;;;;;;;2.50;1.20;;;;;;;12.28;77.13;96009.36;108924;1269;25396;-77
2023/10/29 06:32:59;;;;;;;2.60;1.40;;;;;;;12.87;76.47;96009.82;108901;1260;23318;-77
2023/10/29 06:35:30;;;;;;;2.40;1.40;;;;;;;13.43;75.47;96013.25;108764;1268;22550;-77
2023/10/29 06:38:02;;;;;;;2.50;1.20;;;;;;;13.85;74.34;96015.05;108724;1271;22527;-77
2023/10/29 06:40:33;;;;;;;2.10;1.40;;;;;;;14.17;73.06;96019.52;108750;1272;25173;-77
2023/10/29 06:43:04;;;;;;;3.70;1.30;;;;;;;14.12;71.68;96022.02;108733;1268;22666;-77
2023/10/29 06:45:35;;;;;;;2.40;1.30;;;;;;;13.73;71.08;96025.08;108876;1272;26509;-77
2023/10/29 06:48:07;;;;;;;4.70;1.50;;;;;;;13.38;71.13;96022.88;108894;1271;23751;-77
2023/10/29 06:50:38;;;;;;;2.80;1.30;;;;;;;13.71;71.33;96018.20;108905;1272;25277;-77
2023/10/29 06:53:09;;;;;;;2.30;1.20;;;;;;;14.39;71.02;96019.39;108952;1272;22518;-77
2023/10/29 06:55:42;;;;;;;3.30;1.40;;;;;;;14.86;69.77;96022.43;108705;1272;24262;-77
2023/10/29 06:58:13;;;;;;;3.40;1.20;;;;;;;15.33;68.96;96019.23;108658;1272;22928;-77
2023/10/29 07:00:46;;;;;;;3.20;1.40;;;;;;;15.71;67.96;96019.73;108661;1269;22544;-78
2023/10/29 07:03:17;;;;;;;3.50;1.10;;;;;;;16.29;67.54;96020.02;108663;1265;23488;-77
2023/10/29 07:05:49;;;;;;;4.10;1.20;;;;;;;16.67;66.16;96017.05;108596;1272;22659;-78
2023/10/29 07:08:20;;;;;;;2.10;1.20;;;;;;;16.85;65.16;96018.58;108670;1272;24331;-78
2023/10/29 07:10:51;;;;;;;1.80;0.90;;;;;;;17.33;64.67;96011.92;108803;1256;24225;-78
2023/10/29 07:13:22;;;;;;;1.00;0.80;;;;;;;17.26;63.37;96014.39;108648;1272;24496;-77
2023/10/29 07:15:54;;;;;;;3.00;1.00;;;;;;;17.53;62.73;96015.62;108679;1267;23661;-78
2023/10/29 07:18:26;;;;;;;1.60;0.80;;;;;;;17.66;61.97;96021.35;108640;1272;22525;-78
2023/10/29 07:20:58;;;;;;;1.90;1.00;;;;;;;17.90;61.46;96015.04;108718;1272;22640;-78
2023/10/29 07:23:29;;;;;;;1.70;0.90;;;;;;;17.72;60.21;96019.93;108683;1272;24410;-78
2023/10/29 07:26:00;;;;;;;2.50;1.00;;;;;;;17.50;59.79;96019.04;108636;1272;22569;-78
2023/10/29 07:28:31;;;;;;;1.40;0.90;;;;;;;17.49;59.30;96012.97;108646;1266;22508;-78
2023/10/29 07:31:03;;;;;;;2.40;1.00;;;;;;;17.61;58.94;96007.13;108659;1273;22521;-78
2023/10/29 07:33:34;;;;;;;2.40;1.10;;;;;;;17.84;58.33;96005.81;108663;1272;23284;-78
2023/10/29 07:36:07;;;;;;;3.00;1.20;;;;;;;17.95;57.91;96002.08;108577;1271;26410;-78
2023/10/29 07:38:38;;;;;;;2.50;1.00;;;;;;;17.79;57.70;96001.69;108670;1272;22996;-78
2023/10/29 07:41:09;;;;;;;3.10;1.00;;;;;;;17.37;57.32;96004.68;108647;1272;22517;-78
2023/10/29 07:43:40;;;;;;;1.70;1.20;;;;;;;16.70;57.58;96006.13;108652;1272;22580;-78
2023/10/29 07:46:11;;;;;;;2.10;0.90;;;;;;;16.31;57.93;96001.90;108599;1272;22562;-78
2023/10/29 07:48:43;;;;;;;3.70;1.10;;;;;;;16.32;58.25;95998.43;108680;1272;26433;-78
2023/10/29 07:51:14;;;;;;;4.60;1.00;;;;;;;16.46;58.43;95991.54;108669;1267;24212;-78
2023/10/29 07:53:45;;;;;;;1.70;0.90;;;;;;;16.55;58.24;95989.48;108617;1273;22556;-78
2023/10/29 07:56:16;;;;;;;2.50;0.90;;;;;;;16.65;57.78;95988.48;108683;1255;24269;-78
2023/10/29 07:58:47;;;;;;;2.50;1.00;;;;;;;16.64;57.27;95990.34;108657;1272;22650;-78
2023/10/29 08:01:19;;;;;;;3.80;0.90;;;;;;;16.84;56.77;95989.78;108629;1270;22523;-78
2023/10/29 08:03:51;;;;;;;2.30;0.90;;;;;;;17.21;56.75;95992.80;108654;1272;22851;-78
2023/10/29 08:06:21;;;;;;;3.40;0.90;;;;;;;17.17;56.21;95993.54;108724;1268;22514;-78
2023/10/29 08:08:52;;;;;;;4.50;1.10;;;;;;;16.86;56.19;95992.16;108724;1268;22517;-78
2023/10/29 08:11:24;;;;;;;2.10;1.00;;;;;;;16.89;56.46;95986.96;108741;1269;22633;-78
2023/10/29 08:13:55;;;;;;;1.90;1.00;;;;;;;16.78;56.20;95989.36;108700;1272;22520;-76
2023/10/29 08:16:28;;;;;;;1.50;0.80;;;;;;;17.06;56.88;95984.28;108903;1272;22514;-78
2023/10/29 08:18:59;;;;;;;3.20;1.30;;;;;;;17.44;56.10;95982.55;108889;1272;22534;-78
2023/10/29 08:21:30;;;;;;;2.60;1.30;;;;;;;17.57;55.94;95983.46;108839;1263;24302;-78
2023/10/29 08:24:02;;;;;;;1.90;1.10;;;;;;;17.61;55.83;95988.05;108903;1266;22525;-77
2023/10/29 08:26:33;;;;;;;2.20;0.90;;;;;;;17.54;55.27;95994.58;108679;1272;22518;-77
2023/10/29 08:29:05;;;;;;;2.50;1.10;;;;;;;17.39;55.42;95993.56;108634;1272;22634;-78
2023/10/29 08:31:37;;;;;;;2.30;1.00;;;;;;;17.09;55.54;95992.52;108669;1272;22526;-78
2023/10/29 08:34:08;;;;;;;1.10;0.90;;;;;;;16.78;55.99;95991.34;108679;1270;22530;-77
2023/10/29 08:36:39;;;;;;;2.00;0.80;;;;;;;16.37;56.11;95996.30;108646;1267;22524;-78
2023/10/29 08:39:10;;;;;;;1.60;0.80;;;;;;;16.01;56.48;95993.20;108687;1273;25249;-77
2023/10/29 08:41:41;;;;;;;1.60;0.60;;;;;;;15.84;57.22;95996.30;108624;1273;22517;-77
2023/10/29 08:44:12;;;;;;;4.20;1.10;;;;;;;15.71;57.38;95997.82;108619;1269;26465;-77
2023/10/29 08:46:44;;;;;;;3.60;0.70;;;;;;;15.59;57.74;95996.20;108682;1269;22571;-77
2023/10/29 08:49:16;;;;;;;1.80;0.80;;;;;;;15.47;58.02;95991.70;108666;1272;22547;-77
2023/10/29 08:51:47;;;;;;;3.20;0.90;;;;;;;15.38;58.56;95998.54;108611;1272;25507;-77
2023/10/29 08:54:18;;;;;;;2.80;1.40;;;;;;;15.26;58.67;96000.08;108641;1270;22523;-77
2023/10/29 08:56:50;;;;;;;2.60;1.20;;;;;;;15.17;58.95;96001.30;108672;1272;25240;-78
2023/10/29 08:59:21;;;;;;;1.80;1.10;;;;;;;15.14;59.47;95993.82;108637;1272;22519;-78
2023/10/29 09:01:53;;;;;;;2.90;1.00;;;;;;;15.17;59.87;95996.19;108680;1270;22624;-78
2023/10/29 09:04:24;;;;;;;2.70;1.40;;;;;;;15.13;59.80;95997.25;108649;1272;22511;-78
2023/10/29 09:06:55;;;;;;;3.60;1.20;;;;;;;15.08;60.22;95994.17;108634;1267;22538;-78
2023/10/29 09:09:26;;;;;;;3.10;1.30;;;;;;;15.07;60.11;95997.73;108664;1265;22518;-78
2023/10/29 09:11:57;;;;;;;4.40;1.40;;;;;;;14.98;60.08;95999.27;108693;1269;22522;-78
2023/10/29 09:14:28;;;;;;;1.80;1.10;;;;;;;14.89;60.64;95997.61;108639;1272;26075;-78
2023/10/29 09:16:59;;;;;;;4.60;1.60;;;;;;;14.94;60.64;96002.31;108675;1273;22533;-79
2023/10/29 09:19:30;;;;;;;3.90;1.30;;;;;;;15.02;61.03;96000.25;108655;1269;22580;-79
2023/10/29 09:22:01;;;;;;;3.00;1.20;;;;;;;15.15;61.38;95996.73;108705;1273;22533;-79
2023/10/29 09:24:32;;;;;;;1.70;1.00;;;;;;;15.22;61.31;95992.51;108702;1265;22514;-78
2023/10/29 09:27:04;;;;;;;2.80;1.20;;;;;;;15.30;61.33;95996.16;108789;1273;22520;-78
2023/10/29 09:29:36;;;;;;;4.50;1.40;;;;;;;15.37;61.19;95994.48;108780;1272;22558;-78
2023/10/29 09:32:08;;;;;;;2.40;1.30;;;;;;;15.38;61.16;95992.91;108720;1270;22525;-78
2023/10/29 09:34:42;;;;;;;2.80;1.30;;;;;;;15.37;61.20;95994.39;108664;1272;25277;-78
2023/10/29 09:37:14;;;;;;;3.70;1.00;;;;;;;15.41;60.82;95999.48;108701;1266;24245;-78
2023/10/29 09:39:45;;;;;;;5.20;1.50;;;;;;;15.45;60.82;95994.52;108630;1272;22515;-78
2023/10/29 09:42:18;;;;;;;3.00;1.30;;;;;;;15.55;60.92;95987.52;108648;1267;22561;-78
2023/10/29 09:44:53;;;;;;;3.10;1.10;;;;;;;15.66;60.60;95985.89;108636;1273;22544;-78
2023/10/29 09:47:27;;;;;;;2.10;1.10;;;;;;;15.80;61.15;95984.12;108588;1272;22529;-78
2023/10/29 09:49:58;;;;;;;2.40;1.10;;;;;;;15.95;60.82;95977.16;108631;1265;22505;-78
2023/10/29 09:52:33;;;;;;;2.00;0.80;;;;;;;16.04;60.64;95971.00;108620;1272;22634;-78
2023/10/29 09:55:07;;;;;;;3.70;1.20;;;;;;;16.15;60.58;95966.56;108621;1259;24244;-77
2023/10/29 09:57:38;;;;;;;10.30;1.40;;;;;;;16.22;60.28;95965.22;108680;1262;22551;-77
2023/10/29 10:00:11;;;;;;;5.80;1.80;;;;;;;16.30;60.02;95958.83;108636;1272;22506;-78
2023/10/29 10:02:53;;;;;;;1.70;1.30;;;;;;;16.41;60.23;95947.73;108629;1272;22522;-78
2023/10/29 10:05:27;;;;;;;2.10;1.20;;;;;;;16.44;59.30;95947.91;108612;1272;22645;-78
2023/10/29 10:07:59;;;;;;;3.40;1.30;;;;;;;16.43;59.25;95943.75;108667;1273;22524;-78
2023/10/29 10:10:41;;;;;;;2.20;1.40;;;;;;;16.43;59.24;95940.06;108650;1273;25275;-78
2023/10/29 10:13:14;;;;;;;2.00;1.20;;;;;;;16.17;58.64;95934.17;108641;1267;22535;-78
2023/10/29 10:15:48;;;;;;;4.10;1.40;;;;;;;16.03;58.78;95934.42;108587;1270;22524;-78
2023/10/29 10:18:20;;;;;;;4.80;1.30;;;;;;;16.04;58.99;95932.50;108702;1270;23491;-78
2023/10/29 10:21:00;;;;;;;3.00;1.10;;;;;;;16.11;58.91;95942.52;108730;1273;22542;-78
2023/10/29 10:23:47;;;;;;;3.70;1.40;;;;;;;16.15;58.79;95944.18;108644;1272;24283;-78
2023/10/29 10:26:27;;;;;;;3.00;1.00;;;;;;;16.18;58.48;95945.20;108651;1272;22543;-78
2023/10/29 10:28:59;;;;;;;2.00;1.10;;;;;;;16.22;58.74;95941.83;108650;1273;22566;-78
2023/10/29 10:31:33;;;;;;;1.80;1.00;;;;;;;16.27;58.75;95937.25;108641;1273;22523;-78
2023/10/29 10:34:15;;;;;;;3.50;1.70;;;;;;;16.33;58.62;95932.77;108723;1272;22533;-78
2023/10/29 10:36:48;;;;;;;2.80;0.80;;;;;;;16.34;58.75;95930.38;108681;1273;23713;-78
2023/10/29 10:39:23;;;;;;;1.50;1.00;;;;;;;16.34;58.46;95934.77;108683;1273;22567;-78
2023/10/29 10:41:55;;;;;;;2.90;1.00;;;;;;;16.35;57.52;95932.71;108691;1273;22670;-78
2023/10/29 10:44:27;;;;;;;2.00;1.00;;;;;;;16.31;55.58;95925.30;108632;1273;22508;-78
2023/10/29 10:47:00;;;;;;;1.20;0.70;;;;;;;16.30;54.69;95925.75;108674;1272;25417;-78
2023/10/29 10:49:33;;;;;;;2.30;0.90;;;;;;;16.39;55.11;95925.29;108631;1272;22562;-78
2023/10/29 10:52:06;;;;;;;3.80;1.00;;;;;;;16.52;55.56;95929.00;108690;1273;22529;-78
2023/10/29 10:54:39;;;;;;;2.80;0.70;;;;;;;16.71;56.15;95930.01;108642;1272;22529;-77
2023/10/29 10:57:11;;;;;;;1.40;0.80;;;;;;;16.84;55.19;95926.98;108722;1272;22522;-78
2023/10/29 10:59:43;;;;;;;3.20;1.20;;;;;;;16.84;53.63;95922.16;108649;1272;22592;-78
2023/10/29 11:02:15;;;;;;;3.10;1.10;;;;;;;16.80;53.25;95922.28;108705;1272;22618;-78
2023/10/29 11:04:47;;;;;;;0.90;0.60;;;;;;;16.76;53.07;95917.33;108620;1273;22531;-78
2023/10/29 11:07:18;;;;;;;4.70;0.80;;;;;;;16.73;52.75;95912.58;108719;1272;24572;-78
2023/10/29 11:09:50;;;;;;;1.90;1.00;;;;;;;16.78;52.60;95913.11;108670;1272;22564;-78
2023/10/29 11:12:21;;;;;;;1.90;0.90;;;;;;;16.87;53.02;95911.16;108657;1266;22546;-78
2023/10/29 11:15:17;;;;;;;2.30;0.90;;;;;;;17.00;53.49;95910.02;108638;1273;23159;-78
2023/10/29 11:17:59;;;;;;;2.40;1.10;;;;;;;17.17;54.57;95907.89;108685;1273;22542;-78
2023/10/29 11:20:54;;;;;;;2.50;1.10;;;;;;;17.29;54.26;95902.48;108736;1273;22646;-78
2023/10/29 11:23:30;;;;;;;3.70;1.00;;;;;;;17.33;53.67;95891.75;108642;1260;24234;-79
2023/10/29 11:26:25;;;;;;;2.60;1.00;;;;;;;17.38;53.27;95888.45;108626;1263;22553;-79
2023/10/29 11:28:56;;;;;;;1.90;0.70;;;;;;;17.36;52.55;95889.15;108649;1273;22708;-78
2023/10/29 11:31:27;;;;;;;2.00;0.90;;;;;;;17.30;51.83;95880.55;108666;1272;24353;-78
2023/10/29 11:34:29;;;;;;;2.40;0.80;;;;;;;17.25;51.94;95876.42;108674;1273;22692;-78
2023/10/29 11:37:00;;;;;;;1.10;0.60;;;;;;;17.22;51.87;95869.69;108675;1267;25408;-78
2023/10/29 11:39:36;;;;;;;2.00;0.60;;;;;;;17.19;51.75;95875.58;108669;1273;22694;-78
2023/10/29 11:42:33;;;;;;;0.70;0.40;;;;;;;17.24;51.48;95868.98;108700;1273;22633;-78
2023/10/29 11:45:40;;;;;;;3.90;0.80;;;;;;;17.29;51.07;95871.24;108606;1270;22517;-77
2023/10/29 11:48:16;;;;;;;1.70;0.80;;;;;;;17.36;51.50;95868.02;108891;1270;25287;-79
2023/10/29 11:51:16;;;;;;;2.40;1.10;;;;;;;17.39;50.25;95867.59;108867;1264;22577;-79
2023/10/29 11:53:47;;;;;;;2.10;1.00;;;;;;;17.32;49.19;95867.09;108824;1272;22521;-79
2023/10/29 11:56:28;;;;;;;1.20;0.60;;;;;;;17.34;50.06;95868.20;108648;1273;25408;-79
2023/10/29 11:59:09;;;;;;;0.70;0.60;;;;;;;17.37;48.95;95874.48;108699;1273;24219;-79
2023/10/29 12:01:42;;;;;;;2.90;0.90;;;;;;;17.48;49.63;95876.34;108677;1272;22529;-79
2023/10/29 12:04:13;;;;;;;1.80;0.80;;;;;;;17.70;50.39;95868.06;108674;1263;24252;-78
2023/10/29 12:06:46;;;;;;;4.30;1.30;;;;;;;17.93;50.65;95862.55;108661;1273;22532;-79